createdAt,value
2023-04-12T00:00:01.209Z,9.5
2023-04-12T00:05:01.208Z,9.5
2023-04-12T00:10:01.154Z,9.5
2023-04-12T00:15:01.177Z,9.5
2023-04-12T00:20:01.168Z,9.5
2023-04-12T00:25:01.161Z,9.5
2023-04-12T00:30:01.171Z,9.5
2023-04-12T00:35:01.162Z,9.5
2023-04-12T00:40:01.126Z,9.5
2023-04-12T00:45:01.183Z,9.5
2023-04-12T00:50:01.158Z,9.5
2023-04-12T00:55:01.130Z,9.5
2023-04-12T01:00:01.183Z,9.5
2023-04-12T01:05:01.204Z,9.5
2023-04-12T01:10:01.142Z,9.5
2023-04-12T01:15:01.141Z,9.6
2023-04-12T01:20:01.175Z,9.6
2023-04-12T01:25:01.146Z,9.6
2023-04-12T01:30:01.153Z,9.6
2023-04-12T01:35:01.161Z,9.7
2023-04-12T01:40:01.153Z,9.7
2023-04-12T01:45:01.161Z,9.7
2023-04-12T01:50:01.168Z,9.7
2023-04-12T01:55:01.198Z,9.7
2023-04-12T02:00:01.196Z,9.8
2023-04-12T02:05:01.205Z,9.8
2023-04-12T02:10:01.180Z,9.8
2023-04-12T02:15:01.134Z,9.8
2023-04-12T02:20:01.147Z,9.8
2023-04-12T02:25:01.153Z,9.7
2023-04-12T02:30:01.176Z,9.7
2023-04-12T02:35:01.150Z,9.7
2023-04-12T02:40:00.191Z,9.7
2023-04-12T02:45:01.185Z,9.6
2023-04-12T02:50:01.177Z,9.6
2023-04-12T02:55:01.133Z,9.6
2023-04-12T03:00:01.178Z,9.6
2023-04-12T03:05:01.209Z,9.6
2023-04-12T03:10:01.164Z,9.5
2023-04-12T03:15:01.176Z,9.5
2023-04-12T03:20:01.147Z,9.5
2023-04-12T03:25:01.198Z,9.4
2023-04-12T03:30:01.177Z,9.4
2023-04-12T03:35:01.167Z,9.4
2023-04-12T03:40:01.131Z,9.4
2023-04-12T03:45:01.169Z,9.3
2023-04-12T03:50:10.947Z,9.3
2023-04-12T03:55:01.163Z,9.3
2023-04-12T04:00:01.197Z,9.3
2023-04-12T04:05:01.193Z,9.2
2023-04-12T04:10:01.169Z,9.2
2023-04-12T04:15:01.169Z,9.2
2023-04-12T04:20:01.175Z,9.1
2023-04-12T04:25:01.165Z,9.1
2023-04-12T04:30:01.117Z,9.1
2023-04-12T04:35:01.154Z,9.1
2023-04-12T04:40:01.194Z,9.1
2023-04-12T04:45:01.158Z,9.1
2023-04-12T04:50:01.180Z,9.1
2023-04-12T04:55:02.422Z,9.1
2023-04-12T05:00:01.188Z,9.1
2023-04-12T05:05:01.179Z,9
2023-04-12T05:10:00.236Z,9
2023-04-12T05:20:01.136Z,9
2023-04-12T05:25:01.168Z,9
2023-04-12T05:30:01.233Z,9
2023-04-12T05:35:01.137Z,8.9
2023-04-12T05:40:01.159Z,8.9
2023-04-12T05:45:01.176Z,8.9
2023-04-12T05:50:01.196Z,8.9
2023-04-12T05:55:01.181Z,8.9
2023-04-12T06:00:01.181Z,8.9
2023-04-12T06:05:01.337Z,8.9
2023-04-12T06:10:01.148Z,8.8
2023-04-12T06:15:01.233Z,8.8
2023-04-12T06:20:01.230Z,8.8
2023-04-12T06:25:01.141Z,8.7
2023-04-12T06:30:01.228Z,8.7
2023-04-12T06:35:01.127Z,8.7
2023-04-12T06:40:01.161Z,8.6
2023-04-12T06:45:01.171Z,8.6
2023-04-12T06:50:01.190Z,8.6
2023-04-12T06:55:01.159Z,8.6
2023-04-12T07:00:05.166Z,8.6
2023-04-12T07:05:01.176Z,8.6
2023-04-12T07:10:01.165Z,8.6
2023-04-12T07:15:01.143Z,8.6
2023-04-12T07:30:00.584Z,8.7
2023-04-12T07:35:00.274Z,8.7
2023-04-12T07:40:00.398Z,8.7
2023-04-12T07:45:00.341Z,8.7
2023-04-12T07:50:00.634Z,8.7
2023-04-12T07:55:00.282Z,8.8
2023-04-12T08:00:00.303Z,8.8
2023-04-12T08:05:00.253Z,8.9
2023-04-12T08:10:00.214Z,8.9
2023-04-12T08:15:00.236Z,8.9
2023-04-12T08:20:00.272Z,9
2023-04-12T08:25:00.271Z,9.1
2023-04-12T08:30:00.263Z,9.1
2023-04-12T08:35:00.254Z,9.3
2023-04-12T08:40:00.241Z,9.3
2023-04-12T08:45:00.391Z,9.3
2023-04-12T08:50:00.269Z,9.3
2023-04-12T08:55:00.230Z,9.3
2023-04-12T09:00:00.317Z,9.3
2023-04-12T09:05:00.401Z,9.4
2023-04-12T09:10:00.274Z,9.4
2023-04-12T09:15:00.239Z,9.5
2023-04-12T09:20:00.208Z,9.6
2023-04-12T09:25:00.233Z,9.6
2023-04-12T09:30:00.378Z,9.7
2023-04-12T09:35:00.274Z,9.7
2023-04-12T09:40:00.283Z,9.7
2023-04-12T09:45:00.233Z,9.8
2023-04-12T09:50:00.293Z,9.8
2023-04-12T09:55:00.470Z,9.8
2023-04-12T10:00:00.323Z,9.8
2023-04-12T10:05:00.454Z,9.9
2023-04-12T10:10:00.306Z,10
2023-04-12T10:15:00.248Z,10.1
2023-04-12T10:20:00.272Z,10.2
2023-04-12T10:25:00.251Z,10.2
2023-04-12T10:30:00.307Z,10.2
2023-04-12T10:35:00.230Z,10.3
2023-04-12T10:40:00.275Z,10.4
2023-04-12T10:45:01.254Z,10.5
2023-04-12T10:50:00.320Z,10.6
2023-04-12T10:55:00.228Z,10.7
2023-04-12T11:00:00.306Z,10.9
2023-04-12T11:05:00.308Z,10.9
2023-04-12T11:10:00.275Z,11
2023-04-12T11:15:00.297Z,11.1
2023-04-12T11:20:00.319Z,11.1
2023-04-12T11:25:00.336Z,11
2023-04-12T11:30:00.681Z,11
2023-04-12T11:35:00.269Z,11
2023-04-12T11:40:00.284Z,11
2023-04-12T11:45:04.763Z,10.9
2023-04-12T11:50:00.285Z,10.8
2023-04-12T11:55:00.291Z,10.7
2023-04-12T12:00:05.234Z,10.6
2023-04-12T12:05:00.379Z,10.6
2023-04-12T12:10:00.275Z,10.7
2023-04-12T12:15:00.234Z,10.7
2023-04-12T12:20:00.441Z,10.8
2023-04-12T12:25:00.249Z,10.8
2023-04-12T12:30:00.304Z,10.8
2023-04-12T12:35:00.239Z,10.7
2023-04-12T12:40:00.261Z,10.6
2023-04-12T12:45:00.237Z,10.6
2023-04-12T12:50:00.293Z,10.7
2023-04-12T12:55:00.262Z,10.8
2023-04-12T13:00:00.259Z,10.9
2023-04-12T13:05:00.267Z,11
2023-04-12T13:10:00.693Z,11.1
2023-04-12T13:15:13.358Z,11.3
2023-04-12T13:20:00.279Z,11.4
2023-04-12T13:25:00.251Z,11.6
2023-04-12T13:30:00.554Z,11.7
2023-04-12T13:35:00.255Z,11.8
2023-04-12T13:40:00.344Z,11.8
2023-04-12T13:45:00.475Z,11.8
2023-04-12T13:50:00.293Z,12
2023-04-12T13:55:00.228Z,12.2
2023-04-12T14:00:00.281Z,12.4
2023-04-12T14:05:00.430Z,12.6
2023-04-12T14:10:00.275Z,12.7
2023-04-12T14:15:00.266Z,12.9
2023-04-12T14:20:00.325Z,13
2023-04-12T14:25:00.199Z,13.2
2023-04-12T14:30:00.319Z,13.2
2023-04-12T14:35:00.234Z,13.2
2023-04-12T14:40:00.286Z,13.3
2023-04-12T14:45:00.225Z,13.2
2023-04-12T14:50:00.281Z,13.2
2023-04-12T14:55:00.245Z,13
2023-04-12T15:00:00.330Z,12.8
2023-04-12T15:05:00.469Z,12.4
2023-04-12T15:10:00.281Z,12
2023-04-12T15:15:00.486Z,11.8
2023-04-12T15:20:00.375Z,11.5
2023-04-12T15:25:00.254Z,11.2
2023-04-12T15:30:00.482Z,10.9
2023-04-12T15:35:02.756Z,10.7
2023-04-12T15:40:00.322Z,10.6
2023-04-12T15:45:00.209Z,10.6
2023-04-12T15:50:00.277Z,10.5
2023-04-12T15:55:00.196Z,10.4
2023-04-12T16:00:00.334Z,10.3
2023-04-12T16:05:00.281Z,10.2
2023-04-12T16:10:00.240Z,10.2
2023-04-12T16:15:00.240Z,10.1
2023-04-12T16:20:00.305Z,10
2023-04-12T16:25:00.215Z,9.9
2023-04-12T16:30:00.314Z,10
2023-04-12T16:35:00.283Z,10.1
2023-04-12T16:40:00.326Z,10.2
2023-04-12T16:45:00.320Z,10.2
2023-04-12T16:50:00.292Z,10.2
2023-04-12T16:55:00.257Z,10.2
2023-04-12T17:00:05.144Z,10.2
2023-04-12T17:05:00.296Z,10.1
2023-04-12T17:10:00.305Z,10.1
2023-04-12T17:15:00.297Z,10.1
2023-04-12T17:20:00.295Z,10
2023-04-12T17:25:05.150Z,9.9
2023-04-12T17:30:00.311Z,9.9
2023-04-12T17:35:00.226Z,9.6
2023-04-12T17:40:00.319Z,9.5
2023-04-12T17:45:00.267Z,9.3
2023-04-12T17:50:00.306Z,9.2
2023-04-12T17:55:00.301Z,9
2023-04-12T18:00:00.332Z,8.9
2023-04-12T18:05:00.300Z,8.8
2023-04-12T18:10:00.340Z,8.8
2023-04-12T18:15:00.288Z,8.7
2023-04-12T18:20:02.567Z,8.7
2023-04-12T18:25:00.208Z,8.7
2023-04-12T18:30:00.345Z,8.7
2023-04-12T18:35:00.211Z,8.7
2023-04-12T18:40:00.291Z,8.6
2023-04-12T18:45:00.270Z,8.6
2023-04-12T18:50:00.321Z,8.5
2023-04-12T18:55:00.253Z,8.4
2023-04-12T19:00:00.356Z,8.4
2023-04-12T19:05:00.234Z,8.3
2023-04-12T19:10:00.328Z,8.3
2023-04-12T19:15:00.234Z,8.2
2023-04-12T19:20:00.304Z,8.2
2023-04-12T19:25:00.277Z,8.1
2023-04-12T19:30:00.316Z,8.1
2023-04-12T19:35:00.294Z,8
2023-04-12T19:40:00.315Z,8
2023-04-12T19:45:00.290Z,8
2023-04-12T19:50:00.349Z,7.9
2023-04-12T19:55:01.884Z,7.8
2023-04-12T20:00:05.328Z,7.8
2023-04-12T20:05:00.228Z,7.8
2023-04-12T20:10:00.299Z,7.8
2023-04-12T20:15:00.239Z,7.7
2023-04-12T20:20:00.295Z,7.7
2023-04-12T20:25:00.302Z,7.7
2023-04-12T20:30:00.307Z,7.7
2023-04-12T20:35:00.279Z,7.6
2023-04-12T20:40:00.306Z,7.6
2023-04-12T20:45:00.285Z,7.6
2023-04-12T20:50:00.357Z,7.6
2023-04-12T20:55:00.286Z,7.5
2023-04-12T21:00:00.268Z,7.5
2023-04-12T21:05:00.435Z,7.5
2023-04-12T21:10:00.263Z,7.5
2023-04-12T21:15:00.199Z,7.5
2023-04-12T21:20:00.285Z,7.5
2023-04-12T21:25:00.194Z,7.5
2023-04-12T21:30:00.266Z,7.5
2023-04-12T21:35:00.279Z,7.6
2023-04-12T21:40:00.182Z,7.6
2023-04-12T21:45:00.241Z,7.6
2023-04-12T21:50:00.234Z,7.6
2023-04-12T21:55:00.292Z,7.6
2023-04-12T22:00:00.356Z,7.6
2023-04-12T22:05:00.240Z,7.7
2023-04-12T22:10:00.256Z,7.7
2023-04-12T22:15:00.261Z,7.7
2023-04-12T22:20:00.272Z,7.7
2023-04-12T22:25:00.322Z,7.6
2023-04-12T22:30:00.236Z,7.6
2023-04-12T22:35:08.514Z,7.6
2023-04-12T22:40:00.387Z,7.5
2023-04-12T22:45:00.261Z,7.5
2023-04-12T22:50:00.178Z,7.4
2023-04-12T22:55:00.354Z,7.4
2023-04-12T23:00:00.286Z,7.4
2023-04-12T23:05:00.382Z,7.4
2023-04-12T23:10:00.243Z,7.4
2023-04-12T23:15:00.187Z,7.3
2023-04-12T23:20:00.213Z,7.3
2023-04-12T23:25:00.307Z,7.3
2023-04-12T23:30:00.229Z,7.2
2023-04-12T23:35:00.263Z,7.2
2023-04-12T23:40:00.267Z,7.2
2023-04-12T23:45:00.276Z,7.1
2023-04-12T23:50:00.282Z,7.1
2023-04-12T23:55:00.271Z,7.1
